Time;durP1;ratioP1;P1;durP2;ratioP2;P2;SDS_P1;SDS_P2;PMS_P1;PMS_P2;Temp;Humidity;BMP_temperature;BMP_pressure;BME280_temperature;BME280_humidity;BME280_pressure;Samples;Min_cycle;Max_cycle;Signal;HPM_P1;HPM_P2
2021/01/04 00:00:16;;;;;;;;;;;19.30;37.40;;;;;;491794;240;1019;-53
2021/01/04 00:02:18;;;;;;;;;;;19.30;37.40;;;;;;491874;240;964;-53
2021/01/04 00:04:19;;;;;;;;;;;19.40;37.50;;;;;;491692;240;1093;-53
2021/01/04 00:06:20;;;;;;;;;;;19.40;37.50;;;;;;491672;240;1065;-53
2021/01/04 00:08:21;;;;;;;;;;;19.40;37.50;;;;;;491717;240;990;-53
2021/01/04 00:10:23;;;;;;;;;;;19.40;37.40;;;;;;491661;240;1102;-53
2021/01/04 00:12:24;;;;;;;;;;;19.40;37.40;;;;;;491663;240;1437;-53
2021/01/04 00:14:25;;;;;;;;;;;19.40;37.40;;;;;;491672;240;1010;-53
2021/01/04 00:16:27;;;;;;;;;;;19.40;37.40;;;;;;491579;240;2134;-53
2021/01/04 00:18:28;;;;;;;;;;;19.40;37.40;;;;;;491777;240;1136;-53
2021/01/04 00:20:29;;;;;;;;;;;19.40;37.40;;;;;;491878;240;1060;-53
2021/01/04 00:22:30;;;;;;;;;;;19.40;37.40;;;;;;491640;240;1144;-53
2021/01/04 00:24:32;;;;;;;;;;;19.40;37.40;;;;;;491676;240;1117;-53
2021/01/04 00:26:33;;;;;;;;;;;19.40;37.30;;;;;;491710;240;1168;-53
2021/01/04 00:28:34;;;;;;;;;;;19.40;37.30;;;;;;491787;240;1291;-53
2021/01/04 00:30:36;;;;;;;;;;;19.40;37.30;;;;;;491754;240;1199;-53
2021/01/04 00:32:37;;;;;;;;;;;19.40;37.30;;;;;;491742;240;1267;-53
2021/01/04 00:34:38;;;;;;;;;;;19.40;37.30;;;;;;491710;240;1209;-53
2021/01/04 00:36:40;;;;;;;;;;;19.50;37.30;;;;;;491689;240;2132;-53
2021/01/04 00:38:41;;;;;;;;;;;19.40;37.30;;;;;;491598;240;1162;-53
2021/01/04 00:40:42;;;;;;;;;;;19.50;37.30;;;;;;491596;240;1185;-53
2021/01/04 00:42:44;;;;;;;;;;;19.50;37.30;;;;;;491603;240;1240;-53
2021/01/04 00:44:45;;;;;;;;;;;19.50;37.20;;;;;;491762;240;1065;-53
2021/01/04 00:46:46;;;;;;;;;;;19.50;36.00;;;;;;491648;240;1165;-53
2021/01/04 00:48:47;;;;;;;;;;;19.50;37.30;;;;;;491858;240;1199;-53
2021/01/04 00:50:49;;;;;;;;;;;19.50;37.30;;;;;;491620;240;964;-53
2021/01/04 00:52:50;;;;;;;;;;;19.50;37.30;;;;;;491714;240;961;-53
2021/01/04 00:54:51;;;;;;;;;;;19.50;37.20;;;;;;491776;240;1037;-52
2021/01/04 00:56:52;;;;;;;;;;;19.50;37.20;;;;;;491664;240;2137;-53
2021/01/04 00:58:54;;;;;;;;;;;19.50;37.20;;;;;;491751;240;1031;-53
2021/01/04 01:00:55;;;;;;;;;;;19.50;37.20;;;;;;491622;240;1045;-53
2021/01/04 01:02:56;;;;;;;;;;;19.60;37.30;;;;;;491623;240;1068;-52
2021/01/04 01:04:58;;;;;;;;;;;19.50;37.20;;;;;;491645;240;1174;-53
2021/01/04 01:06:59;;;;;;;;;;;19.60;37.30;;;;;;491526;240;1125;-53
2021/01/04 01:09:00;;;;;;;;;;;19.50;35.90;;;;;;491961;240;1050;-53
2021/01/04 01:11:01;;;;;;;;;;;19.50;37.20;;;;;;491653;240;964;-53
2021/01/04 01:13:03;;;;;;;;;;;19.50;37.20;;;;;;491664;240;1060;-52
2021/01/04 01:15:04;;;;;;;;;;;19.50;35.80;;;;;;491791;240;1177;-53
2021/01/04 01:17:06;;;;;;;;;;;19.60;37.20;;;;;;491839;240;2200;-53
2021/01/04 01:19:07;;;;;;;;;;;19.60;37.20;;;;;;491654;240;1176;-53
2021/01/04 01:21:08;;;;;;;;;;;19.60;35.90;;;;;;491641;240;1079;-53
2021/01/04 01:23:10;;;;;;;;;;;19.60;37.20;;;;;;491647;240;944;-53
2021/01/04 01:25:11;;;;;;;;;;;19.60;37.20;;;;;;491609;240;1030;-53
2021/01/04 01:27:12;;;;;;;;;;;19.60;37.20;;;;;;491589;240;1067;-53
2021/01/04 01:29:14;;;;;;;;;;;19.60;37.20;;;;;;491616;240;997;-53
2021/01/04 01:31:15;;;;;;;;;;;19.60;37.20;;;;;;491527;240;1232;-53
2021/01/04 01:33:16;;;;;;;;;;;19.60;37.20;;;;;;491662;240;1071;-52
2021/01/04 01:35:17;;;;;;;;;;;19.60;37.20;;;;;;491628;240;1280;-53
2021/01/04 01:37:19;;;;;;;;;;;19.60;37.10;;;;;;491727;240;2149;-53
2021/01/04 01:39:20;;;;;;;;;;;19.60;37.10;;;;;;491751;240;1060;-53
2021/01/04 01:41:21;;;;;;;;;;;19.60;37.10;;;;;;491563;240;1198;-53
2021/01/04 01:43:23;;;;;;;;;;;19.60;37.10;;;;;;491623;240;1083;-52
2021/01/04 01:45:24;;;;;;;;;;;19.60;37.10;;;;;;491570;240;1580;-53
2021/01/04 01:47:25;;;;;;;;;;;19.60;37.10;;;;;;491627;240;1111;-53
2021/01/04 01:49:26;;;;;;;;;;;19.60;37.10;;;;;;491758;240;1104;-53
2021/01/04 01:51:28;;;;;;;;;;;19.60;37.10;;;;;;491642;240;1050;-53
2021/01/04 01:53:29;;;;;;;;;;;19.70;37.10;;;;;;491766;240;1134;-53
2021/01/04 01:55:30;;;;;;;;;;;19.70;37.10;;;;;;491833;240;1173;-53
2021/01/04 01:57:31;;;;;;;;;;;19.70;37.10;;;;;;491661;240;2196;-53
2021/01/04 01:59:33;;;;;;;;;;;19.70;37.10;;;;;;491614;240;1054;-53
2021/01/04 02:01:34;;;;;;;;;;;19.70;37.10;;;;;;491604;240;1206;-53
2021/01/04 02:03:36;;;;;;;;;;;19.70;37.10;;;;;;491680;240;1046;-53
2021/01/04 02:05:37;;;;;;;;;;;19.70;37.10;;;;;;491645;240;1261;-53
2021/01/04 02:07:38;;;;;;;;;;;19.70;37.10;;;;;;491656;240;1156;-53
2021/01/04 02:09:40;;;;;;;;;;;19.70;37.10;;;;;;491789;240;1331;-53
2021/01/04 02:11:41;;;;;;;;;;;19.70;37.00;;;;;;491703;240;1399;-53
2021/01/04 02:13:43;;;;;;;;;;;19.70;37.10;;;;;;491711;240;1067;-53
2021/01/04 02:15:44;;;;;;;;;;;19.70;37.00;;;;;;491655;240;1179;-53
2021/01/04 02:17:45;;;;;;;;;;;19.70;37.10;;;;;;491730;240;2117;-53
2021/01/04 02:19:46;;;;;;;;;;;19.70;37.10;;;;;;491688;240;1137;-53
2021/01/04 02:21:48;;;;;;;;;;;19.70;37.00;;;;;;491588;240;1154;-53
2021/01/04 02:23:49;;;;;;;;;;;19.80;37.10;;;;;;491749;240;1419;-53
2021/01/04 02:25:50;;;;;;;;;;;19.70;37.00;;;;;;491649;240;992;-53
2021/01/04 02:27:51;;;;;;;;;;;19.80;37.10;;;;;;491645;240;1157;-53
2021/01/04 02:29:53;;;;;;;;;;;19.80;37.10;;;;;;491624;240;981;-53
2021/01/04 02:31:54;;;;;;;;;;;19.80;37.10;;;;;;491570;240;1463;-53
2021/01/04 02:33:55;;;;;;;;;;;19.80;37.10;;;;;;491636;240;1080;-53
2021/01/04 02:36:01;;;;;;;;;;;19.80;37.10;;;;;;491559;240;1173;-53
2021/01/04 02:37:59;;;;;;;;;;;19.80;37.00;;;;;;491562;242;2228;-53
2021/01/04 02:40:00;;;;;;;;;;;19.70;37.00;;;;;;491655;240;1115;-53
2021/01/04 02:42:02;;;;;;;;;;;19.70;37.00;;;;;;491538;240;1143;-53
2021/01/04 02:44:03;;;;;;;;;;;19.80;37.00;;;;;;491628;240;957;-52
2021/01/04 02:46:05;;;;;;;;;;;19.70;36.90;;;;;;491538;240;1500;-53
2021/01/04 02:48:06;;;;;;;;;;;19.70;36.90;;;;;;491611;240;967;-53
2021/01/04 02:50:07;;;;;;;;;;;19.80;37.00;;;;;;491808;240;1297;-53
2021/01/04 02:52:08;;;;;;;;;;;19.80;37.00;;;;;;491628;240;935;-53
2021/01/04 02:54:10;;;;;;;;;;;19.80;37.00;;;;;;491713;240;1057;-52
2021/01/04 02:56:11;;;;;;;;;;;19.80;37.00;;;;;;491814;238;1355;-53
2021/01/04 02:58:12;;;;;;;;;;;19.80;37.00;;;;;;491833;240;2124;-53
2021/01/04 03:00:14;;;;;;;;;;;19.80;37.00;;;;;;491873;240;1025;-53
2021/01/04 03:02:15;;;;;;;;;;;19.80;37.00;;;;;;491630;240;1040;-53
2021/01/04 03:04:16;;;;;;;;;;;19.80;35.60;;;;;;491757;240;998;-53
2021/01/04 03:06:17;;;;;;;;;;;19.80;36.90;;;;;;491689;240;1122;-53
2021/01/04 03:08:19;;;;;;;;;;;19.80;36.90;;;;;;491662;240;1024;-53
2021/01/04 03:10:20;;;;;;;;;;;19.80;36.90;;;;;;491677;240;1065;-52
2021/01/04 03:12:21;;;;;;;;;;;19.80;36.90;;;;;;491696;240;1061;-54
2021/01/04 03:14:22;;;;;;;;;;;19.80;36.90;;;;;;491810;240;973;-53
2021/01/04 03:16:24;;;;;;;;;;;19.80;36.90;;;;;;491608;240;2188;-53
2021/01/04 03:18:25;;;;;;;;;;;19.80;36.90;;;;;;491666;240;1188;-53
2021/01/04 03:20:26;;;;;;;;;;;19.80;36.90;;;;;;491588;240;1257;-53
2021/01/04 03:22:27;;;;;;;;;;;19.80;36.90;;;;;;491758;240;1766;-53
2021/01/04 03:24:29;;;;;;;;;;;19.80;36.90;;;;;;491677;240;1032;-53
2021/01/04 03:26:30;;;;;;;;;;;19.80;36.90;;;;;;491746;240;1131;-53
2021/01/04 03:28:31;;;;;;;;;;;19.90;36.90;;;;;;491710;240;1138;-53
2021/01/04 03:30:33;;;;;;;;;;;19.90;36.90;;;;;;491596;240;1049;-53
2021/01/04 03:32:34;;;;;;;;;;;19.90;36.90;;;;;;491591;240;1174;-53
2021/01/04 03:34:35;;;;;;;;;;;19.90;36.90;;;;;;491741;240;1168;-53
2021/01/04 03:36:36;;;;;;;;;;;19.90;36.90;;;;;;491678;240;2164;-53
2021/01/04 03:38:38;;;;;;;;;;;19.90;36.90;;;;;;491678;240;1211;-53
2021/01/04 03:40:39;;;;;;;;;;;19.90;36.90;;;;;;491700;240;1118;-52
2021/01/04 03:42:40;;;;;;;;;;;19.90;36.90;;;;;;491711;240;1240;-53
2021/01/04 03:44:42;;;;;;;;;;;19.90;36.90;;;;;;491779;240;1164;-53
2021/01/04 03:46:43;;;;;;;;;;;19.90;36.90;;;;;;491626;240;1155;-53
2021/01/04 03:48:44;;;;;;;;;;;19.90;36.80;;;;;;491605;240;1044;-53
2021/01/04 03:50:45;;;;;;;;;;;19.90;36.90;;;;;;491664;240;1126;-54
2021/01/04 03:52:47;;;;;;;;;;;19.90;36.80;;;;;;491625;240;1325;-53
2021/01/04 03:54:48;;;;;;;;;;;19.90;36.80;;;;;;491875;240;1227;-53
2021/01/04 03:56:49;;;;;;;;;;;19.90;36.90;;;;;;491741;240;2176;-53
2021/01/04 03:58:50;;;;;;;;;;;19.90;36.90;;;;;;491990;240;948;-53
2021/01/04 04:00:52;;;;;;;;;;;19.90;36.90;;;;;;491798;240;1282;-53
2021/01/04 04:02:53;;;;;;;;;;;19.90;36.80;;;;;;491622;240;1204;-53
2021/01/04 04:04:54;;;;;;;;;;;19.90;36.80;;;;;;491763;240;1160;-53
2021/01/04 04:06:56;;;;;;;;;;;19.90;36.80;;;;;;491617;240;1361;-53
2021/01/04 04:08:57;;;;;;;;;;;19.90;36.80;;;;;;491802;240;1083;-53
2021/01/04 04:10:58;;;;;;;;;;;19.90;36.80;;;;;;491785;240;1005;-53
2021/01/04 04:12:59;;;;;;;;;;;19.90;36.80;;;;;;491689;240;1163;-53
2021/01/04 04:15:01;;;;;;;;;;;19.90;36.80;;;;;;491911;240;1027;-53
2021/01/04 04:17:02;;;;;;;;;;;19.90;36.80;;;;;;491636;240;2196;-53
2021/01/04 04:19:03;;;;;;;;;;;19.90;36.80;;;;;;491717;240;1102;-53
2021/01/04 04:21:05;;;;;;;;;;;19.90;36.80;;;;;;491637;240;1158;-53
2021/01/04 04:23:06;;;;;;;;;;;19.90;36.80;;;;;;491719;240;1012;-53
2021/01/04 04:25:07;;;;;;;;;;;19.90;36.80;;;;;;491974;240;973;-53
2021/01/04 04:27:08;;;;;;;;;;;19.90;36.80;;;;;;491727;240;1108;-53
2021/01/04 04:29:10;;;;;;;;;;;19.90;36.80;;;;;;491611;240;1070;-53
2021/01/04 04:31:11;;;;;;;;;;;20.00;37.00;;;;;;491587;240;1076;-53
2021/01/04 04:33:12;;;;;;;;;;;20.00;36.90;;;;;;491737;240;1191;-53
2021/01/04 04:35:13;;;;;;;;;;;20.10;36.80;;;;;;491789;240;1147;-52
2021/01/04 04:37:15;;;;;;;;;;;20.10;36.60;;;;;;491633;240;2192;-53
2021/01/04 04:39:16;;;;;;;;;;;20.00;36.70;;;;;;491634;240;1179;-53
2021/01/04 04:41:17;;;;;;;;;;;19.90;36.80;;;;;;491605;240;1214;-53
2021/01/04 04:43:19;;;;;;;;;;;19.90;36.90;;;;;;491592;240;1231;-52
2021/01/04 04:45:20;;;;;;;;;;;19.90;37.00;;;;;;491603;240;1055;-53
2021/01/04 04:47:21;;;;;;;;;;;19.80;37.00;;;;;;491607;240;1100;-53
2021/01/04 04:49:22;;;;;;;;;;;19.80;37.10;;;;;;491673;240;1133;-53
2021/01/04 04:51:24;;;;;;;;;;;19.70;37.20;;;;;;491607;238;1324;-52
2021/01/04 04:53:25;;;;;;;;;;;19.70;37.30;;;;;;491649;240;1264;-53
2021/01/04 04:55:26;;;;;;;;;;;19.60;37.30;;;;;;491612;240;1242;-53
2021/01/04 04:57:27;;;;;;;;;;;19.60;37.40;;;;;;491599;240;2163;-53
2021/01/04 04:59:29;;;;;;;;;;;19.50;37.40;;;;;;491662;240;1055;-53
2021/01/04 05:01:31;;;;;;;;;;;19.50;37.50;;;;;;491705;240;1344;-53
2021/01/04 05:03:32;;;;;;;;;;;19.50;37.60;;;;;;491662;240;949;-53
2021/01/04 05:05:33;;;;;;;;;;;19.40;37.60;;;;;;491610;240;1132;-53
2021/01/04 05:07:34;;;;;;;;;;;19.40;37.60;;;;;;491674;240;1276;-53
2021/01/04 05:09:36;;;;;;;;;;;19.40;37.60;;;;;;491594;240;1131;-53
2021/01/04 05:11:37;;;;;;;;;;;19.30;37.60;;;;;;491632;240;1358;-53
2021/01/04 05:13:38;;;;;;;;;;;19.30;37.80;;;;;;491625;240;1067;-53
2021/01/04 05:15:39;;;;;;;;;;;19.30;37.90;;;;;;491843;240;1050;-53
2021/01/04 05:17:41;;;;;;;;;;;19.20;37.80;;;;;;491681;240;2141;-53
2021/01/04 05:19:42;;;;;;;;;;;19.20;37.90;;;;;;491686;240;1138;-53
2021/01/04 05:21:43;;;;;;;;;;;19.20;38.00;;;;;;491649;240;1216;-53
2021/01/04 05:23:44;;;;;;;;;;;19.10;37.90;;;;;;491663;240;1052;-52
2021/01/04 05:25:46;;;;;;;;;;;19.10;38.00;;;;;;491624;240;1152;-53
2021/01/04 05:27:47;;;;;;;;;;;19.10;38.00;;;;;;491728;240;1222;-52
2021/01/04 05:29:49;;;;;;;;;;;19.10;38.10;;;;;;491964;240;1043;-53
2021/01/04 05:31:50;;;;;;;;;;;19.00;38.00;;;;;;491522;240;1188;-53
2021/01/04 05:33:51;;;;;;;;;;;19.00;38.10;;;;;;491732;240;1038;-52
2021/01/04 05:35:52;;;;;;;;;;;19.00;38.20;;;;;;491490;240;1195;-53
2021/01/04 05:37:54;;;;;;;;;;;19.00;38.20;;;;;;491675;240;2163;-53
2021/01/04 05:39:55;;;;;;;;;;;19.00;38.20;;;;;;491694;240;1082;-53
2021/01/04 05:41:56;;;;;;;;;;;18.90;38.20;;;;;;491813;240;1139;-54
2021/01/04 05:43:58;;;;;;;;;;;18.90;38.30;;;;;;491718;240;1155;-53
2021/01/04 05:45:59;;;;;;;;;;;18.90;38.30;;;;;;491582;240;1306;-53
2021/01/04 05:48:00;;;;;;;;;;;18.90;38.40;;;;;;491621;240;1192;-53
2021/01/04 05:50:05;;;;;;;;;;;18.80;38.30;;;;;;491731;240;1013;-53
2021/01/04 05:52:03;;;;;;;;;;;18.80;38.40;;;;;;491621;242;2080;-53
2021/01/04 05:54:04;;;;;;;;;;;18.80;38.40;;;;;;491686;240;1042;-54
2021/01/04 05:56:05;;;;;;;;;;;18.80;38.40;;;;;;491632;240;1000;-52
2021/01/04 05:58:07;;;;;;;;;;;18.80;38.40;;;;;;491612;240;2176;-53
2021/01/04 06:00:08;;;;;;;;;;;18.80;38.50;;;;;;491658;240;1239;-53
2021/01/04 06:02:10;;;;;;;;;;;18.80;38.50;;;;;;491589;240;1383;-53
2021/01/04 06:04:11;;;;;;;;;;;18.70;38.50;;;;;;491637;240;1222;-52
2021/01/04 06:06:12;;;;;;;;;;;18.70;38.50;;;;;;491557;240;1524;-53
2021/01/04 06:08:14;;;;;;;;;;;18.70;38.50;;;;;;491636;240;1218;-53
2021/01/04 06:10:15;;;;;;;;;;;18.70;37.20;;;;;;491685;240;1065;-53
2021/01/04 06:12:16;;;;;;;;;;;18.60;38.50;;;;;;491624;240;1303;-53
2021/01/04 06:14:17;;;;;;;;;;;18.60;38.50;;;;;;491652;240;1043;-53
2021/01/04 06:16:19;;;;;;;;;;;18.60;38.60;;;;;;491732;240;1198;-53
2021/01/04 06:18:20;;;;;;;;;;;18.60;38.60;;;;;;491654;240;2183;-53
2021/01/04 06:20:21;;;;;;;;;;;18.60;38.60;;;;;;491730;240;1200;-53
2021/01/04 06:22:22;;;;;;;;;;;18.60;38.60;;;;;;491879;240;1179;-53
2021/01/04 06:24:24;;;;;;;;;;;18.60;38.70;;;;;;491684;240;1067;-53
2021/01/04 06:26:25;;;;;;;;;;;18.60;38.70;;;;;;491854;240;1176;-53
2021/01/04 06:28:26;;;;;;;;;;;18.60;37.40;;;;;;491814;240;1060;-53
2021/01/04 06:30:28;;;;;;;;;;;18.60;38.70;;;;;;491781;240;1138;-53
2021/01/04 06:32:29;;;;;;;;;;;18.50;38.70;;;;;;491923;240;1099;-53
2021/01/04 06:34:30;;;;;;;;;;;18.50;38.70;;;;;;491828;240;1235;-53
2021/01/04 06:36:31;;;;;;;;;;;18.50;38.70;;;;;;491616;240;1193;-53
2021/01/04 06:38:33;;;;;;;;;;;18.50;38.70;;;;;;491599;240;2191;-53
2021/01/04 06:40:34;;;;;;;;;;;18.50;38.70;;;;;;491894;240;1249;-53
2021/01/04 06:42:35;;;;;;;;;;;18.50;38.70;;;;;;491694;240;1110;-53
2021/01/04 06:44:37;;;;;;;;;;;18.50;38.70;;;;;;491708;240;1305;-53
2021/01/04 06:46:38;;;;;;;;;;;18.40;37.40;;;;;;491691;240;1328;-52
2021/01/04 06:48:39;;;;;;;;;;;18.40;38.70;;;;;;492001;240;1148;-53
2021/01/04 06:50:40;;;;;;;;;;;18.40;38.80;;;;;;491570;240;1051;-53
2021/01/04 06:52:42;;;;;;;;;;;18.40;38.80;;;;;;491690;240;1235;-53
2021/01/04 06:54:43;;;;;;;;;;;18.40;38.80;;;;;;491625;240;1125;-53
2021/01/04 06:56:44;;;;;;;;;;;18.40;38.80;;;;;;491783;240;1394;-53
2021/01/04 06:58:46;;;;;;;;;;;18.40;38.80;;;;;;491653;240;2133;-53
2021/01/04 07:00:47;;;;;;;;;;;18.40;38.80;;;;;;491773;240;1077;-53
2021/01/04 07:02:48;;;;;;;;;;;18.40;38.80;;;;;;491590;240;1192;-52
2021/01/04 07:04:49;;;;;;;;;;;18.40;38.80;;;;;;491654;240;1084;-53
2021/01/04 07:06:51;;;;;;;;;;;18.40;38.80;;;;;;491700;240;1068;-52
2021/01/04 07:08:52;;;;;;;;;;;18.30;38.80;;;;;;491752;240;1168;-53
2021/01/04 07:10:53;;;;;;;;;;;18.30;38.80;;;;;;491628;240;1257;-53
2021/01/04 07:12:54;;;;;;;;;;;18.30;38.80;;;;;;491674;240;999;-53
2021/01/04 07:14:56;;;;;;;;;;;18.30;38.80;;;;;;491821;240;945;-52
2021/01/04 07:16:57;;;;;;;;;;;18.30;38.80;;;;;;491508;240;1148;-53
2021/01/04 07:18:58;;;;;;;;;;;18.30;38.80;;;;;;491820;240;2126;-52
2021/01/04 07:21:00;;;;;;;;;;;18.30;38.80;;;;;;491540;240;1193;-53
2021/01/04 07:23:01;;;;;;;;;;;18.30;37.50;;;;;;491646;240;1228;-52
2021/01/04 07:25:02;;;;;;;;;;;18.30;37.60;;;;;;491690;240;1353;-53
2021/01/04 07:27:04;;;;;;;;;;;18.30;38.90;;;;;;491508;240;1662;-53
2021/01/04 07:29:05;;;;;;;;;;;18.30;38.90;;;;;;491632;240;1132;-52
2021/01/04 07:31:07;;;;;;;;;;;18.30;38.90;;;;;;491536;240;1227;-53
2021/01/04 07:33:08;;;;;;;;;;;18.30;38.90;;;;;;491580;240;1103;-53
2021/01/04 07:35:09;;;;;;;;;;;18.30;38.90;;;;;;491713;240;1015;-53
2021/01/04 07:40:00;;;;;;;;;;;18.30;38.80;;;;;;491679;243;2134;-53
2021/01/04 07:42:02;;;;;;;;;;;18.30;38.70;;;;;;491772;240;1163;-53
2021/01/04 07:44:03;;;;;;;;;;;18.30;38.60;;;;;;491656;240;1169;-53
2021/01/04 07:46:04;;;;;;;;;;;18.40;38.60;;;;;;491605;240;1486;-53
2021/01/04 07:48:06;;;;;;;;;;;18.40;38.60;;;;;;491764;240;1333;-53
2021/01/04 07:50:07;;;;;;;;;;;18.40;38.50;;;;;;491603;240;1411;-53
2021/01/04 07:52:08;;;;;;;;;;;18.40;38.50;;;;;;491796;240;1271;-53
2021/01/04 07:54:09;;;;;;;;;;;18.40;38.40;;;;;;491700;240;1015;-53
2021/01/04 07:56:11;;;;;;;;;;;18.50;38.50;;;;;;491685;240;1064;-53
2021/01/04 07:58:12;;;;;;;;;;;18.50;38.40;;;;;;491836;240;2153;-53
2021/01/04 08:00:14;;;;;;;;;;;18.50;38.40;;;;;;491844;240;1095;-53
2021/01/04 08:02:15;;;;;;;;;;;18.50;38.30;;;;;;491717;240;1051;-53
2021/01/04 08:04:16;;;;;;;;;;;18.50;38.30;;;;;;491572;240;1153;-53
2021/01/04 08:06:18;;;;;;;;;;;18.50;38.20;;;;;;491659;240;1100;-53
2021/01/04 08:08:19;;;;;;;;;;;18.50;38.20;;;;;;491651;240;1158;-53
2021/01/04 08:10:20;;;;;;;;;;;18.60;38.20;;;;;;491573;240;1376;-53
2021/01/04 08:12:21;;;;;;;;;;;18.60;38.20;;;;;;491597;240;1032;-53
2021/01/04 08:17:12;;;;;;;;;;;18.60;38.10;;;;;;491517;242;2190;-53
2021/01/04 08:19:14;;;;;;;;;;;18.70;38.10;;;;;;491517;240;2129;-53
2021/01/04 08:21:15;;;;;;;;;;;18.70;38.10;;;;;;491510;240;1065;-53
2021/01/04 08:23:16;;;;;;;;;;;18.70;38.00;;;;;;491498;240;1170;-53
2021/01/04 08:25:18;;;;;;;;;;;18.70;38.00;;;;;;491577;240;1120;-53
2021/01/04 08:27:19;;;;;;;;;;;18.70;38.00;;;;;;491721;240;1307;-53
2021/01/04 08:29:20;;;;;;;;;;;18.80;38.00;;;;;;491668;240;1187;-53
2021/01/04 08:31:21;;;;;;;;;;;18.80;37.90;;;;;;491624;240;1044;-53
2021/01/04 08:33:23;;;;;;;;;;;18.80;37.90;;;;;;491688;240;1323;-53
2021/01/04 08:35:24;;;;;;;;;;;18.80;37.90;;;;;;491484;240;1045;-53
2021/01/04 08:37:25;;;;;;;;;;;18.80;37.80;;;;;;491516;240;1091;-53
2021/01/04 08:39:27;;;;;;;;;;;18.80;37.80;;;;;;491618;240;2136;-53
2021/01/04 08:41:28;;;;;;;;;;;18.80;37.80;;;;;;491476;240;1035;-53
2021/01/04 08:43:29;;;;;;;;;;;18.90;37.80;;;;;;491516;240;1154;-53
2021/01/04 08:45:31;;;;;;;;;;;18.90;37.80;;;;;;491603;240;1024;-53
2021/01/04 08:47:32;;;;;;;;;;;18.90;37.70;;;;;;491651;240;1484;-53
2021/01/04 08:49:33;;;;;;;;;;;18.90;37.70;;;;;;491740;240;1034;-53
2021/01/04 08:51:34;;;;;;;;;;;18.90;37.70;;;;;;491495;240;1324;-53
2021/01/04 08:53:36;;;;;;;;;;;18.90;37.70;;;;;;491538;240;1158;-53
2021/01/04 08:55:37;;;;;;;;;;;18.90;37.60;;;;;;491583;240;1039;-53
2021/01/04 08:57:38;;;;;;;;;;;19.00;37.70;;;;;;491492;240;1152;-53
2021/01/04 08:59:40;;;;;;;;;;;19.00;37.70;;;;;;491571;240;2124;-53
2021/01/04 09:01:41;;;;;;;;;;;19.00;37.60;;;;;;491586;240;1148;-53
2021/01/04 09:03:42;;;;;;;;;;;19.00;37.60;;;;;;491645;240;1085;-53
2021/01/04 09:05:44;;;;;;;;;;;19.00;37.60;;;;;;491633;240;1067;-53
2021/01/04 09:07:45;;;;;;;;;;;19.00;37.60;;;;;;491576;240;1221;-53
2021/01/04 09:09:46;;;;;;;;;;;19.10;37.60;;;;;;491586;240;964;-53
2021/01/04 09:11:48;;;;;;;;;;;19.00;37.50;;;;;;491517;240;1498;-53
2021/01/04 09:13:49;;;;;;;;;;;19.00;37.50;;;;;;491624;240;1184;-53
2021/01/04 09:15:50;;;;;;;;;;;19.10;37.50;;;;;;491580;240;1601;-53
2021/01/04 09:17:51;;;;;;;;;;;19.10;37.40;;;;;;491553;240;1260;-53
2021/01/04 09:19:53;;;;;;;;;;;19.10;37.40;;;;;;491519;240;2145;-53
2021/01/04 09:21:54;;;;;;;;;;;19.10;37.40;;;;;;491569;240;1579;-53
2021/01/04 09:23:55;;;;;;;;;;;19.10;37.40;;;;;;491602;240;1074;-53
2021/01/04 09:25:57;;;;;;;;;;;19.10;37.40;;;;;;491627;240;1470;-53
2021/01/04 09:27:58;;;;;;;;;;;19.10;37.40;;;;;;491564;240;1060;-53
2021/01/04 09:29:59;;;;;;;;;;;19.10;37.40;;;;;;491567;240;1180;-53
2021/01/04 09:32:00;;;;;;;;;;;19.10;37.40;;;;;;491599;240;1071;-53
2021/01/04 09:34:02;;;;;;;;;;;19.10;37.40;;;;;;491602;240;1240;-53
2021/01/04 09:36:03;;;;;;;;;;;19.20;37.40;;;;;;491680;240;1014;-52
2021/01/04 09:38:04;;;;;;;;;;;19.20;37.40;;;;;;491679;240;1074;-53
2021/01/04 09:40:05;;;;;;;;;;;19.20;37.40;;;;;;491640;240;2184;-53
2021/01/04 09:42:07;;;;;;;;;;;19.20;37.40;;;;;;491828;240;1071;-54
2021/01/04 09:44:08;;;;;;;;;;;19.20;37.30;;;;;;491684;240;1164;-53
2021/01/04 09:46:09;;;;;;;;;;;19.20;37.30;;;;;;491598;240;1228;-53
2021/01/04 09:48:11;;;;;;;;;;;19.20;37.30;;;;;;491564;240;1147;-53
2021/01/04 09:50:12;;;;;;;;;;;19.30;37.30;;;;;;491564;240;1071;-53
2021/01/04 09:52:13;;;;;;;;;;;19.30;37.30;;;;;;491541;240;1167;-53
2021/01/04 09:54:14;;;;;;;;;;;19.30;37.30;;;;;;491604;240;1229;-53
2021/01/04 09:56:16;;;;;;;;;;;19.30;37.30;;;;;;491470;240;1141;-53
2021/01/04 09:58:17;;;;;;;;;;;19.30;37.30;;;;;;491539;240;1418;-53
2021/01/04 10:00:18;;;;;;;;;;;19.30;37.30;;;;;;491501;240;2188;-53
2021/01/04 10:02:19;;;;;;;;;;;19.30;37.20;;;;;;491584;240;1170;-53
2021/01/04 10:04:21;;;;;;;;;;;19.30;37.20;;;;;;491559;240;1050;-53
2021/01/04 10:06:22;;;;;;;;;;;19.30;37.20;;;;;;491463;240;1244;-53
2021/01/04 10:08:23;;;;;;;;;;;19.30;37.20;;;;;;491686;240;1201;-53
2021/01/04 10:10:25;;;;;;;;;;;19.30;37.20;;;;;;491576;240;1046;-53
2021/01/04 10:12:26;;;;;;;;;;;19.30;37.20;;;;;;491643;240;1249;-53
2021/01/04 10:14:27;;;;;;;;;;;19.30;37.10;;;;;;491723;240;1157;-53
2021/01/04 10:16:29;;;;;;;;;;;19.30;37.10;;;;;;491556;240;1185;-53
2021/01/04 10:18:30;;;;;;;;;;;19.30;37.10;;;;;;491567;240;1567;-53
2021/01/04 10:20:31;;;;;;;;;;;19.40;37.20;;;;;;491606;240;2141;-53
2021/01/04 10:22:33;;;;;;;;;;;19.40;37.20;;;;;;491632;240;1082;-53
2021/01/04 10:24:34;;;;;;;;;;;19.40;37.20;;;;;;491592;240;1039;-53
2021/01/04 10:26:35;;;;;;;;;;;19.40;37.10;;;;;;491702;240;1190;-53
2021/01/04 10:28:36;;;;;;;;;;;19.40;37.10;;;;;;491586;240;1091;-53
2021/01/04 10:30:38;;;;;;;;;;;19.40;37.10;;;;;;491568;240;1251;-53
2021/01/04 10:32:39;;;;;;;;;;;19.40;37.10;;;;;;491593;240;1144;-53
2021/01/04 10:34:40;;;;;;;;;;;19.40;37.10;;;;;;491482;240;992;-53
2021/01/04 10:36:42;;;;;;;;;;;19.40;37.10;;;;;;491640;240;958;-53
2021/01/04 10:38:43;;;;;;;;;;;19.40;37.10;;;;;;491688;240;1155;-53
2021/01/04 10:40:44;;;;;;;;;;;19.40;37.00;;;;;;491628;240;2133;-53
2021/01/04 10:42:46;;;;;;;;;;;19.40;37.10;;;;;;491563;240;1196;-53
2021/01/04 10:44:47;;;;;;;;;;;19.40;37.10;;;;;;491531;240;1170;-53
2021/01/04 10:46:48;;;;;;;;;;;19.40;37.00;;;;;;491657;240;1045;-53
2021/01/04 10:48:50;;;;;;;;;;;19.40;37.00;;;;;;491708;240;1130;-53
2021/01/04 10:50:51;;;;;;;;;;;19.40;37.00;;;;;;491690;240;1156;-53
2021/01/04 10:52:53;;;;;;;;;;;19.40;37.00;;;;;;491563;240;1320;-53
2021/01/04 10:54:54;;;;;;;;;;;19.40;37.00;;;;;;491603;240;1053;-53
2021/01/04 10:56:55;;;;;;;;;;;19.50;37.00;;;;;;491421;240;1201;-53
2021/01/04 10:58:56;;;;;;;;;;;19.50;37.00;;;;;;491577;240;2177;-53
2021/01/04 11:00:58;;;;;;;;;;;19.50;37.00;;;;;;491432;240;1343;-52
2021/01/04 11:03:03;;;;;;;;;;;19.50;37.00;;;;;;491592;240;1168;-53
2021/01/04 11:05:00;;;;;;;;;;;19.50;37.00;;;;;;491566;241;2257;-53
2021/01/04 11:07:02;;;;;;;;;;;19.50;37.00;;;;;;491639;240;1248;-53
2021/01/04 11:09:03;;;;;;;;;;;19.50;37.00;;;;;;491812;240;1234;-53
2021/01/04 11:11:04;;;;;;;;;;;19.50;36.90;;;;;;491560;240;1190;-53
2021/01/04 11:13:05;;;;;;;;;;;19.50;37.00;;;;;;491556;240;1322;-53
2021/01/04 11:15:07;;;;;;;;;;;19.50;36.90;;;;;;491609;240;1213;-53
2021/01/04 11:17:08;;;;;;;;;;;19.50;36.90;;;;;;491601;240;1286;-53
2021/01/04 11:19:09;;;;;;;;;;;19.50;36.90;;;;;;491529;240;2177;-53
2021/01/04 11:21:10;;;;;;;;;;;19.60;37.00;;;;;;491539;240;1029;-53
2021/01/04 11:23:12;;;;;;;;;;;19.50;36.90;;;;;;491561;240;1174;-53
2021/01/04 11:25:13;;;;;;;;;;;19.50;36.90;;;;;;491570;240;1052;-53
2021/01/04 11:27:14;;;;;;;;;;;19.60;36.90;;;;;;491541;240;1281;-53
2021/01/04 11:29:16;;;;;;;;;;;19.50;36.80;;;;;;491729;240;1008;-53
2021/01/04 11:31:19;;;;;;;;;;;19.60;36.90;;;;;;491511;240;1126;-53
2021/01/04 11:33:24;;;;;;;;;;;19.60;36.90;;;;;;491535;240;1076;-53
2021/01/04 11:35:21;;;;;;;;;;;19.60;36.90;;;;;;491504;242;1255;-53
2021/01/04 11:37:22;;;;;;;;;;;19.60;36.90;;;;;;491350;240;1195;-53
2021/01/04 11:39:24;;;;;;;;;;;19.60;36.90;;;;;;491605;240;2144;-53
2021/01/04 11:41:25;;;;;;;;;;;19.60;36.90;;;;;;491664;240;1148;-53
2021/01/04 11:43:26;;;;;;;;;;;19.60;36.90;;;;;;491444;240;1036;-53
2021/01/04 11:45:27;;;;;;;;;;;19.60;36.80;;;;;;491439;240;1219;-53
2021/01/04 11:47:29;;;;;;;;;;;19.60;36.90;;;;;;491534;240;1195;-53
2021/01/04 11:49:30;;;;;;;;;;;19.60;36.80;;;;;;491550;240;1015;-53
2021/01/04 11:51:31;;;;;;;;;;;19.60;36.80;;;;;;491344;240;1145;-53
2021/01/04 11:53:33;;;;;;;;;;;19.60;36.80;;;;;;491627;240;1160;-53
2021/01/04 11:55:34;;;;;;;;;;;19.60;36.80;;;;;;491510;240;1096;-53
2021/01/04 11:57:36;;;;;;;;;;;19.60;36.80;;;;;;491607;240;1436;-54
2021/01/04 11:59:37;;;;;;;;;;;19.60;36.80;;;;;;491633;240;2136;-53
2021/01/04 12:01:38;;;;;;;;;;;19.60;36.80;;;;;;491632;240;1118;-53